Time;durP1;ratioP1;P1;durP2;ratioP2;P2;SDS_P1;SDS_P2;PMS_P1;PMS_P2;Temp;Humidity;BMP_temperature;BMP_pressure;BME280_temperature;BME280_humidity;BME280_pressure;Samples;Min_cycle;Max_cycle;Signal;HPM_P1;HPM_P2
2024/01/31 00:00:31;;;;;;;8.38;1.58;;;5.10;99.90;;;;;;5132062;27;20492;-80
2024/01/31 00:02:57;;;;;;;7.13;1.50;;;5.10;99.90;;;;;;5149982;27;20043;-80
2024/01/31 00:05:23;;;;;;;9.13;1.50;;;5.70;99.90;;;;;;5150694;27;20042;-80
2024/01/31 00:07:48;;;;;;;5.95;1.50;;;5.10;99.90;;;;;;5129811;27;20119;-80
2024/01/31 00:10:14;;;;;;;3.28;1.35;;;5.10;99.90;;;;;;5146169;27;20038;-80
2024/01/31 00:12:40;;;;;;;4.82;1.17;;;5.10;99.90;;;;;;5116149;27;20187;-80
2024/01/31 00:15:06;;;;;;;5.55;1.60;;;5.00;99.90;;;;;;5145545;27;20045;-80
2024/01/31 00:17:31;;;;;;;7.53;1.42;;;5.00;99.90;;;;;;5146782;27;20039;-80
2024/01/31 00:19:57;;;;;;;5.82;1.40;;;5.00;99.90;;;;;;5111153;27;20421;-80
2024/01/31 00:22:22;;;;;;;5.82;1.50;;;5.10;99.90;;;;;;5128494;27;20077;-80
2024/01/31 00:24:48;;;;;;;10.27;1.70;;;5.10;99.90;;;;;;5142489;27;20053;-80
2024/01/31 00:27:14;;;;;;;6.93;1.88;;;5.10;99.90;;;;;;5128784;27;20416;-80
2024/01/31 00:29:39;;;;;;;4.07;1.52;;;5.10;99.90;;;;;;5130371;27;20046;-79
2024/01/31 00:32:05;;;;;;;4.20;1.60;;;5.10;99.90;;;;;;5133882;27;20039;-79
2024/01/31 00:34:31;;;;;;;3.85;1.55;;;5.10;99.90;;;;;;5146726;27;20035;-80
2024/01/31 00:36:57;;;;;;;6.53;1.52;;;5.10;99.90;;;;;;5150198;27;20539;-80
2024/01/31 00:39:28;;;;;;;5.80;1.42;;;5.10;99.90;;;;;;5130050;27;20203;-80
2024/01/31 00:41:54;;;;;;;7.75;1.63;;;5.10;99.90;;;;;;5115920;27;20053;-80
2024/01/31 00:44:20;;;;;;;7.38;1.50;;;5.20;99.90;;;;;;5130322;27;20043;-79
2024/01/31 00:46:48;;;;;;;8.30;1.55;;;5.20;99.90;;;;;;5144507;27;20037;-80
2024/01/31 00:49:14;;;;;;;8.05;1.40;;;5.10;99.90;;;;;;5116136;27;20085;-80
2024/01/31 00:51:43;;;;;;;10.02;2.15;;;5.20;99.90;;;;;;5145298;27;20046;-80
2024/01/31 00:54:10;;;;;;;6.75;1.75;;;5.10;99.90;;;;;;5124410;27;20160;-79
2024/01/31 00:56:36;;;;;;;5.95;1.33;;;5.10;99.90;;;;;;5115862;27;20043;-79
2024/01/31 00:59:01;;;;;;;6.80;1.40;;;5.50;99.90;;;;;;5128756;27;20050;-80
2024/01/31 01:01:27;;;;;;;3.90;1.30;;;5.10;99.90;;;;;;5140124;27;20394;-80
2024/01/31 01:03:52;;;;;;;10.55;1.10;;;5.10;99.90;;;;;;5119241;27;20043;-80
2024/01/31 01:06:18;;;;;;;2.72;1.10;;;5.10;99.90;;;;;;5138892;27;20039;-80
2024/01/31 01:08:44;;;;;;;4.93;1.50;;;5.10;99.90;;;;;;5118747;27;20046;-80
2024/01/31 01:11:10;;;;;;;8.70;1.40;;;5.10;99.90;;;;;;5135817;27;20054;-80
2024/01/31 01:13:35;;;;;;;3.90;1.60;;;5.10;99.90;;;;;;5135734;27;20034;-80
2024/01/31 01:16:01;;;;;;;5.28;1.42;;;5.10;99.90;;;;;;5126151;27;20482;-80
2024/01/31 01:18:26;;;;;;;3.00;1.30;;;5.10;99.90;;;;;;5130628;27;20161;-80
2024/01/31 01:20:52;;;;;;;7.03;1.75;;;5.10;99.90;;;;;;5134622;27;20035;-80
2024/01/31 01:23:18;;;;;;;4.40;1.45;;;5.10;99.90;;;;;;5140740;27;20051;-80
2024/01/31 01:25:44;;;;;;;3.35;1.17;;;5.10;99.90;;;;;;5111004;27;20077;-80
2024/01/31 01:28:09;;;;;;;6.50;1.33;;;5.00;99.90;;;;;;5148806;27;20495;-80
2024/01/31 01:30:35;;;;;;;6.72;1.50;;;5.00;99.90;;;;;;5127962;27;20181;-80
2024/01/31 01:33:01;;;;;;;4.97;1.40;;;5.00;99.90;;;;;;5115508;27;20050;-80
2024/01/31 01:35:26;;;;;;;10.18;1.58;;;5.00;99.90;;;;;;5129914;27;20038;-80
2024/01/31 01:37:52;;;;;;;6.93;1.67;;;5.00;99.90;;;;;;5148269;27;20047;-80
2024/01/31 01:40:17;;;;;;;9.55;1.63;;;5.00;99.90;;;;;;5141161;27;20069;-80
2024/01/31 01:42:44;;;;;;;4.70;1.58;;;5.00;99.90;;;;;;5137849;27;20043;-80
2024/01/31 01:45:10;;;;;;;4.28;1.20;;;5.00;99.90;;;;;;5129733;27;20824;-80
2024/01/31 01:47:37;;;;;;;3.67;1.05;;;5.00;99.90;;;;;;5128662;27;20036;-80
2024/01/31 01:50:03;;;;;;;9.02;1.60;;;4.90;99.90;;;;;;5114121;27;20046;-80
2024/01/31 01:52:31;;;;;;;2.90;1.30;;;4.90;99.90;;;;;;5130791;27;20808;-80
2024/01/31 01:54:58;;;;;;;4.07;1.33;;;4.90;99.90;;;;;;5147676;27;20095;-80
2024/01/31 01:57:25;;;;;;;5.47;1.40;;;4.90;99.90;;;;;;5141685;27;20518;-80
2024/01/31 01:59:51;;;;;;;3.80;1.20;;;4.90;99.90;;;;;;5108336;27;20046;-80
2024/01/31 02:02:17;;;;;;;4.28;1.10;;;4.90;99.90;;;;;;5126712;27;20051;-80
2024/01/31 02:04:43;;;;;;;4.55;1.17;;;4.90;99.90;;;;;;5096085;27;20597;-80
2024/01/31 02:07:09;;;;;;;4.70;1.10;;;4.90;99.90;;;;;;5131280;27;20035;-80
2024/01/31 02:09:36;;;;;;;6.57;1.60;;;4.90;99.90;;;;;;5148183;27;20045;-79
2024/01/31 02:12:02;;;;;;;4.10;1.58;;;4.90;99.90;;;;;;5151465;27;20426;-80
2024/01/31 02:14:28;;;;;;;8.20;1.55;;;4.90;99.90;;;;;;5151702;27;20031;-80
2024/01/31 02:16:57;;;;;;;7.07;0.90;;;4.90;99.90;;;;;;5133132;27;20058;-79
2024/01/31 02:19:22;;;;;;;5.28;1.20;;;4.90;99.90;;;;;;5118989;27;20051;-80
2024/01/31 02:21:51;;;;;;;5.28;1.33;;;4.90;99.90;;;;;;5148294;27;20062;-80
2024/01/31 02:24:16;;;;;;;5.10;0.77;;;4.90;99.90;;;;;;5119947;27;20087;-80
2024/01/31 02:26:42;;;;;;;9.25;1.10;;;4.90;99.90;;;;;;5133273;27;20417;-80
2024/01/31 02:29:07;;;;;;;3.40;0.88;;;4.90;99.90;;;;;;5140817;27;20039;-80
2024/01/31 02:31:33;;;;;;;2.90;0.90;;;4.90;99.90;;;;;;5125597;27;20046;-80
2024/01/31 02:33:59;;;;;;;3.40;0.80;;;4.90;99.90;;;;;;5123718;27;20848;-80
2024/01/31 02:36:24;;;;;;;4.30;0.90;;;4.90;99.90;;;;;;5150935;27;20385;-79
2024/01/31 02:38:50;;;;;;;3.63;1.00;;;4.90;99.90;;;;;;5132929;27;20442;-80
2024/01/31 02:41:15;;;;;;;1.70;0.80;;;4.90;99.90;;;;;;5149220;27;20054;-80
2024/01/31 02:43:42;;;;;;;2.85;0.82;;;4.90;99.90;;;;;;5150455;27;20031;-80
2024/01/31 02:46:08;;;;;;;5.28;1.20;;;4.90;99.90;;;;;;5112680;27;20519;-80
2024/01/31 02:48:35;;;;;;;5.38;1.00;;;4.90;99.90;;;;;;5127225;27;20488;-80
2024/01/31 02:51:00;;;;;;;3.40;0.90;;;4.80;99.90;;;;;;5114849;27;20600;-80
2024/01/31 02:53:26;;;;;;;7.20;1.15;;;4.80;99.90;;;;;;5135726;27;20079;-80
2024/01/31 02:55:51;;;;;;;7.25;1.50;;;4.70;99.90;;;;;;5135998;27;20384;-80
2024/01/31 02:58:17;;;;;;;7.13;1.20;;;4.70;99.90;;;;;;5134074;27;20043;-80
2024/01/31 03:00:43;;;;;;;4.63;1.30;;;4.70;99.90;;;;;;5130840;27;20341;-80
2024/01/31 03:03:08;;;;;;;6.65;0.95;;;4.70;99.90;;;;;;5149589;27;20053;-80
2024/01/31 03:05:34;;;;;;;5.55;1.10;;;4.70;99.90;;;;;;5116109;27;20499;-80
2024/01/31 03:08:00;;;;;;;2.60;1.10;;;4.70;99.90;;;;;;5131490;27;20050;-80
2024/01/31 03:10:25;;;;;;;4.68;1.55;;;4.70;99.90;;;;;;5149955;27;20049;-80
2024/01/31 03:12:51;;;;;;;4.75;1.00;;;4.70;99.90;;;;;;5133693;27;20039;-79
2024/01/31 03:15:16;;;;;;;3.85;0.82;;;4.70;99.90;;;;;;5113001;27;20106;-80
2024/01/31 03:17:42;;;;;;;2.90;1.27;;;4.70;99.90;;;;;;5134595;27;20031;-79
2024/01/31 03:20:10;;;;;;;4.78;1.02;;;4.70;99.90;;;;;;5135033;27;20337;-79
2024/01/31 03:22:35;;;;;;;2.95;0.95;;;4.70;99.90;;;;;;5133568;27;20049;-80
2024/01/31 03:25:01;;;;;;;4.40;1.10;;;4.70;99.90;;;;;;5133335;27;20416;-79
2024/01/31 03:27:26;;;;;;;3.15;1.00;;;4.70;99.90;;;;;;5151590;27;20038;-80
2024/01/31 03:29:52;;;;;;;3.20;1.20;;;4.70;99.90;;;;;;5131265;27;20068;-80
2024/01/31 03:32:18;;;;;;;3.60;1.10;;;4.70;99.90;;;;;;5123263;27;20043;-80
2024/01/31 03:34:43;;;;;;;6.03;1.67;;;4.70;99.90;;;;;;5131978;27;20118;-80
2024/01/31 03:37:09;;;;;;;4.75;1.05;;;4.70;99.90;;;;;;5114851;27;20047;-80
2024/01/31 03:39:34;;;;;;;2.65;1.08;;;4.70;99.90;;;;;;5111164;27;20127;-80
2024/01/31 03:42:00;;;;;;;4.15;1.10;;;4.70;99.90;;;;;;5120051;27;20362;-80
2024/01/31 03:44:26;;;;;;;3.97;1.23;;;4.70;99.90;;;;;;5142856;27;20393;-80
2024/01/31 03:46:51;;;;;;;5.47;1.00;;;4.70;99.90;;;;;;5130279;27;20043;-80
2024/01/31 03:49:17;;;;;;;4.05;1.00;;;4.70;99.90;;;;;;5147142;27;20050;-80
2024/01/31 03:51:42;;;;;;;6.03;1.45;;;4.70;99.90;;;;;;5132008;27;20042;-80
2024/01/31 03:54:08;;;;;;;2.72;1.50;;;4.70;99.90;;;;;;5142414;27;20050;-80
2024/01/31 03:56:34;;;;;;;5.60;1.00;;;4.70;99.90;;;;;;5130072;27;20151;-80
2024/01/31 03:59:01;;;;;;;3.38;0.85;;;4.70;99.90;;;;;;5130054;27;20420;-79
2024/01/31 04:01:26;;;;;;;3.80;1.02;;;4.70;99.90;;;;;;5097430;27;20039;-80
2024/01/31 04:03:52;;;;;;;3.00;1.10;;;4.70;99.90;;;;;;5135426;27;20054;-79
2024/01/31 04:06:18;;;;;;;4.10;1.20;;;4.80;99.90;;;;;;5145906;27;20122;-79
2024/01/31 04:08:43;;;;;;;4.70;1.10;;;4.70;99.90;;;;;;5138977;27;20043;-80
2024/01/31 04:11:09;;;;;;;4.05;0.90;;;4.70;99.90;;;;;;5119893;27;20055;-79
2024/01/31 04:13:34;;;;;;;6.28;1.00;;;4.70;99.90;;;;;;5129749;27;20778;-79
2024/01/31 04:16:00;;;;;;;2.97;0.98;;;4.70;99.90;;;;;;5137886;27;20177;-79
2024/01/31 04:18:25;;;;;;;6.47;1.23;;;4.70;99.90;;;;;;5126817;27;20053;-79
2024/01/31 04:20:52;;;;;;;7.82;1.27;;;4.60;99.90;;;;;;5134263;27;20039;-79
2024/01/31 04:23:17;;;;;;;3.70;1.00;;;4.70;99.90;;;;;;5131244;27;20051;-79
2024/01/31 04:25:43;;;;;;;2.78;0.90;;;4.60;99.90;;;;;;5110651;27;20114;-79
2024/01/31 04:28:12;;;;;;;2.92;0.93;;;4.70;99.90;;;;;;5128879;27;20187;-79
2024/01/31 04:30:37;;;;;;;2.22;1.00;;;4.70;99.90;;;;;;5128131;27;20065;-80
2024/01/31 04:33:03;;;;;;;4.35;0.90;;;4.70;99.90;;;;;;5097953;27;20031;-79
2024/01/31 04:35:29;;;;;;;3.45;1.13;;;4.60;99.90;;;;;;5129201;27;20042;-79
2024/01/31 04:37:55;;;;;;;2.80;0.80;;;5.50;99.90;;;;;;5123497;27;20125;-80
2024/01/31 04:40:20;;;;;;;1.38;0.80;;;4.60;99.90;;;;;;5128414;27;20580;-79
2024/01/31 04:42:47;;;;;;;5.40;0.82;;;4.60;99.90;;;;;;5110726;27;20040;-80
2024/01/31 04:45:15;;;;;;;1.90;0.60;;;4.60;99.90;;;;;;5145803;27;20094;-79
2024/01/31 04:47:41;;;;;;;2.45;0.55;;;4.60;99.90;;;;;;5126091;27;20055;-79
2024/01/31 04:50:07;;;;;;;2.38;0.82;;;4.50;99.90;;;;;;5118131;27;20042;-79
2024/01/31 04:52:33;;;;;;;3.63;0.77;;;4.50;99.90;;;;;;5140283;27;20032;-80
2024/01/31 04:54:59;;;;;;;3.25;0.90;;;4.40;99.90;;;;;;5119360;27;20051;-79
2024/01/31 04:57:24;;;;;;;3.08;0.82;;;4.30;99.90;;;;;;5128653;27;20064;-80
2024/01/31 04:59:50;;;;;;;1.38;0.68;;;4.20;99.90;;;;;;5110351;27;20409;-79
2024/01/31 05:02:15;;;;;;;1.40;0.55;;;4.10;99.90;;;;;;5136394;27;20113;-79
2024/01/31 05:04:41;;;;;;;2.15;0.65;;;4.10;99.90;;;;;;5138101;27;20088;-79
2024/01/31 05:07:07;;;;;;;3.08;0.90;;;4.00;99.90;;;;;;5132146;27;20045;-80
2024/01/31 05:09:33;;;;;;;2.13;0.88;;;4.00;99.90;;;;;;5139252;27;20043;-79
2024/01/31 05:11:58;;;;;;;3.88;1.00;;;3.90;99.90;;;;;;5125265;27;20050;-80
2024/01/31 05:14:24;;;;;;;3.20;1.00;;;4.40;99.90;;;;;;5109744;27;20082;-80
2024/01/31 05:16:50;;;;;;;5.13;0.75;;;3.70;99.90;;;;;;5135848;27;20064;-79
2024/01/31 05:19:16;;;;;;;4.18;1.00;;;3.60;99.90;;;;;;5128835;27;20050;-80
2024/01/31 05:21:49;;;;;;;3.28;1.00;;;3.60;99.90;;;;;;5112806;27;20058;-79
2024/01/31 05:24:16;;;;;;;3.40;0.98;;;3.50;99.90;;;;;;5093687;28;20754;-80
2024/01/31 05:26:47;;;;;;;4.60;1.38;;;3.50;99.90;;;;;;5128769;27;20049;-80
2024/01/31 05:29:14;;;;;;;2.38;0.93;;;3.40;99.90;;;;;;5129346;27;20066;-80
2024/01/31 05:31:39;;;;;;;4.65;1.27;;;3.30;99.90;;;;;;5109661;27;20039;-79
2024/01/31 05:34:05;;;;;;;4.60;1.25;;;3.40;99.90;;;;;;5110426;28;20069;-80
2024/01/31 05:36:31;;;;;;;1.75;1.00;;;3.40;99.90;;;;;;5109643;27;20049;-80
2024/01/31 05:38:57;;;;;;;4.05;0.90;;;3.50;99.90;;;;;;5111244;27;20055;-80
2024/01/31 05:41:22;;;;;;;3.58;1.23;;;3.60;99.90;;;;;;5114477;27;20038;-80
2024/01/31 05:43:48;;;;;;;1.63;1.13;;;3.70;99.90;;;;;;5116865;27;20080;-80
2024/01/31 05:46:16;;;;;;;4.47;0.93;;;3.70;99.90;;;;;;5153717;27;20084;-80
2024/01/31 05:48:42;;;;;;;4.57;1.02;;;3.80;99.90;;;;;;5132962;27;20049;-80
2024/01/31 05:51:08;;;;;;;4.65;1.65;;;3.90;99.90;;;;;;5116135;27;20047;-80
2024/01/31 05:53:34;;;;;;;3.65;1.20;;;3.90;99.90;;;;;;5135689;27;20031;-79
2024/01/31 05:55:59;;;;;;;2.08;1.17;;;3.90;99.90;;;;;;5133250;27;20078;-79
2024/01/31 05:58:25;;;;;;;3.75;1.25;;;3.90;99.90;;;;;;5131814;27;20039;-79
2024/01/31 06:00:52;;;;;;;5.90;1.77;;;4.00;99.90;;;;;;5141766;27;21412;-79
2024/01/31 06:03:17;;;;;;;2.85;1.00;;;4.00;99.90;;;;;;5150169;27;20046;-80
2024/01/31 06:05:43;;;;;;;5.78;1.65;;;4.10;99.90;;;;;;5148814;27;20054;-80
2024/01/31 06:08:08;;;;;;;4.63;1.50;;;4.10;99.90;;;;;;5136701;27;20122;-80
2024/01/31 06:10:34;;;;;;;5.38;1.58;;;4.20;99.90;;;;;;5116649;27;20578;-80
2024/01/31 06:13:00;;;;;;;7.22;1.70;;;4.20;99.90;;;;;;5125158;27;20039;-80
2024/01/31 06:15:26;;;;;;;3.28;1.58;;;4.20;99.90;;;;;;5151093;27;20050;-80
2024/01/31 06:17:52;;;;;;;5.35;1.70;;;4.30;99.90;;;;;;5149803;27;20046;-80
2024/01/31 06:20:19;;;;;;;3.72;1.40;;;4.30;99.90;;;;;;5135906;27;20573;-80
2024/01/31 06:22:44;;;;;;;4.45;1.50;;;4.30;99.90;;;;;;5146813;27;20098;-80
2024/01/31 06:25:10;;;;;;;3.60;1.60;;;4.30;99.90;;;;;;5119091;27;20059;-80
2024/01/31 06:27:36;;;;;;;9.20;1.50;;;4.30;99.90;;;;;;5113808;27;20043;-80
2024/01/31 06:30:03;;;;;;;7.90;1.75;;;4.40;99.90;;;;;;5110023;27;20035;-80
2024/01/31 06:32:34;;;;;;;3.55;1.30;;;4.40;99.90;;;;;;5141525;27;20071;-82
2024/01/31 06:35:00;;;;;;;8.65;1.70;;;4.40;99.90;;;;;;5148387;27;20042;-80
2024/01/31 06:37:26;;;;;;;6.40;1.80;;;4.50;99.90;;;;;;5135274;27;20039;-81
2024/01/31 06:39:53;;;;;;;6.35;2.00;;;4.50;99.90;;;;;;5135394;27;20042;-81
2024/01/31 06:42:20;;;;;;;6.75;1.88;;;4.50;99.90;;;;;;5145295;27;20047;-79
2024/01/31 06:44:45;;;;;;;6.05;1.75;;;4.60;99.90;;;;;;5118579;27;20042;-79
2024/01/31 06:47:11;;;;;;;4.90;1.70;;;4.60;99.90;;;;;;5122027;27;20042;-79
2024/01/31 06:49:37;;;;;;;4.38;2.08;;;4.50;99.90;;;;;;5101683;27;20832;-79
2024/01/31 06:52:03;;;;;;;7.18;1.70;;;4.60;99.90;;;;;;5139335;27;20383;-78
2024/01/31 06:54:28;;;;;;;6.13;2.10;;;4.60;99.90;;;;;;5152000;27;20437;-80
2024/01/31 06:56:54;;;;;;;5.07;1.63;;;4.60;99.90;;;;;;5135495;27;20031;-79
2024/01/31 06:59:20;;;;;;;6.25;1.85;;;4.60;99.90;;;;;;5123332;27;20047;-79
2024/01/31 07:01:46;;;;;;;5.75;2.30;;;4.60;99.90;;;;;;5132657;27;20407;-80
2024/01/31 07:04:12;;;;;;;5.13;2.40;;;4.80;99.90;;;;;;5133660;27;20046;-78
2024/01/31 07:06:37;;;;;;;3.58;2.10;;;4.60;99.90;;;;;;5129209;27;20496;-79
2024/01/31 07:09:03;;;;;;;8.00;2.10;;;4.60;99.90;;;;;;5146680;27;20121;-79
2024/01/31 07:11:30;;;;;;;4.25;2.42;;;4.60;99.90;;;;;;5151358;27;20047;-79
2024/01/31 07:13:55;;;;;;;4.82;2.38;;;4.70;99.90;;;;;;5151830;27;20122;-79
2024/01/31 07:16:21;;;;;;;5.13;2.40;;;4.60;99.90;;;;;;5151474;27;20031;-79
2024/01/31 07:18:48;;;;;;;4.22;2.25;;;4.70;99.90;;;;;;5147163;27;20042;-80
2024/01/31 07:21:24;;;;;;;4.28;2.50;;;4.70;99.90;;;;;;5129814;27;20131;-80
2024/01/31 07:23:50;;;;;;;6.55;2.30;;;4.60;99.90;;;;;;5144931;27;20158;-81
2024/01/31 07:26:29;;;;;;;8.77;3.08;;;4.80;99.90;;;;;;5121284;27;20130;-79
2024/01/31 07:28:55;;;;;;;7.97;2.53;;;4.90;99.90;;;;;;5131108;27;20057;-79
2024/01/31 07:31:21;;;;;;;10.15;2.97;;;4.80;99.90;;;;;;5129938;27;20486;-80
2024/01/31 07:33:47;;;;;;;4.60;2.67;;;4.70;99.90;;;;;;5112572;27;20050;-79
2024/01/31 07:36:13;;;;;;;4.75;2.60;;;4.80;99.90;;;;;;5130176;27;20077;-80
2024/01/31 07:38:43;;;;;;;7.03;2.70;;;4.80;99.90;;;;;;5130989;27;20070;-79
2024/01/31 07:41:08;;;;;;;7.65;2.78;;;4.80;99.90;;;;;;5121017;27;20497;-79
2024/01/31 07:43:35;;;;;;;5.38;2.88;;;4.80;99.90;;;;;;5127264;27;20041;-78
2024/01/31 07:46:03;;;;;;;7.03;3.90;;;4.80;99.90;;;;;;5134582;27;20186;-79
2024/01/31 07:48:30;;;;;;;5.68;3.22;;;5.60;99.90;;;;;;5112048;27;20099;-80
2024/01/31 07:50:55;;;;;;;5.07;3.28;;;4.80;99.90;;;;;;5130508;27;20050;-80
2024/01/31 07:53:21;;;;;;;6.00;3.78;;;4.70;99.90;;;;;;5112261;27;20126;-80
2024/01/31 07:55:46;;;;;;;7.57;3.22;;;4.70;99.90;;;;;;5129990;27;20039;-80
2024/01/31 07:58:12;;;;;;;7.80;3.80;;;5.20;99.90;;;;;;5127395;27;20047;-78
2024/01/31 08:00:38;;;;;;;5.43;3.67;;;4.70;99.90;;;;;;5129699;27;20063;-78
2024/01/31 08:03:03;;;;;;;7.35;3.80;;;4.60;99.90;;;;;;5117797;27;20037;-78
2024/01/31 08:05:29;;;;;;;5.40;4.18;;;4.70;99.90;;;;;;5144638;27;20078;-79
2024/01/31 08:07:55;;;;;;;6.13;4.70;;;4.70;99.90;;;;;;5135525;27;20061;-78
2024/01/31 08:10:20;;;;;;;11.30;4.78;;;4.70;99.90;;;;;;5140644;27;20075;-79
2024/01/31 08:12:46;;;;;;;7.88;4.28;;;4.80;99.90;;;;;;5149622;27;20046;-78
2024/01/31 08:15:12;;;;;;;7.05;4.57;;;4.80;99.90;;;;;;5149237;27;20455;-78
2024/01/31 08:17:38;;;;;;;8.70;5.00;;;4.80;99.90;;;;;;5114045;27;20066;-78
2024/01/31 08:20:06;;;;;;;6.78;4.55;;;4.80;99.90;;;;;;5145036;27;20088;-78
2024/01/31 08:22:33;;;;;;;8.82;5.03;;;4.90;99.90;;;;;;5145896;27;20043;-79
2024/01/31 08:24:59;;;;;;;11.18;4.90;;;4.90;99.90;;;;;;5110677;27;20059;-79
2024/01/31 08:27:24;;;;;;;8.07;5.00;;;4.90;99.90;;;;;;5129882;27;20042;-78
2024/01/31 08:29:51;;;;;;;11.00;5.82;;;4.90;99.90;;;;;;5129720;27;20051;-79
2024/01/31 08:32:17;;;;;;;8.30;5.50;;;4.90;99.90;;;;;;5111224;27;20054;-79
2024/01/31 08:34:43;;;;;;;8.82;5.75;;;5.00;99.90;;;;;;5111222;27;20042;-78
2024/01/31 08:37:08;;;;;;;8.13;5.70;;;5.00;99.90;;;;;;5129943;27;20050;-79
2024/01/31 08:39:34;;;;;;;12.15;5.97;;;5.00;99.90;;;;;;5110631;27;20043;-79
2024/01/31 08:42:00;;;;;;;8.18;5.80;;;5.00;99.90;;;;;;5129298;27;20051;-80
2024/01/31 08:44:25;;;;;;;11.02;5.95;;;5.10;99.90;;;;;;5110748;27;20046;-79
2024/01/31 08:46:52;;;;;;;14.60;6.63;;;5.10;99.90;;;;;;5129175;27;20047;-79
2024/01/31 08:49:17;;;;;;;11.23;5.38;;;5.60;99.90;;;;;;5110670;27;20043;-80
2024/01/31 08:51:43;;;;;;;8.73;5.25;;;5.20;99.90;;;;;;5129141;27;20050;-79
2024/01/31 08:54:08;;;;;;;6.20;4.95;;;5.20;99.90;;;;;;5108553;27;20103;-79
2024/01/31 08:56:34;;;;;;;8.27;4.43;;;5.20;99.90;;;;;;5128624;27;20047;-80
2024/01/31 08:59:00;;;;;;;6.80;4.60;;;5.30;99.90;;;;;;5129424;27;20124;-80
2024/01/31 09:01:26;;;;;;;5.18;3.95;;;5.30;99.90;;;;;;5128799;27;20055;-80
2024/01/31 09:03:52;;;;;;;4.53;3.80;;;5.30;99.90;;;;;;5129365;27;20035;-81
2024/01/31 09:06:17;;;;;;;7.95;3.90;;;5.30;99.90;;;;;;5110837;27;20456;-79
2024/01/31 09:08:43;;;;;;;4.97;3.35;;;5.30;99.90;;;;;;5139766;27;20448;-80
2024/01/31 09:11:09;;;;;;;6.93;3.50;;;5.40;99.90;;;;;;5144603;27;20125;-81
2024/01/31 09:13:35;;;;;;;4.07;3.08;;;5.20;99.90;;;;;;5149933;27;20899;-80
2024/01/31 09:16:01;;;;;;;5.07;3.58;;;5.40;99.90;;;;;;5130813;27;20441;-79
2024/01/31 09:18:28;;;;;;;4.93;3.00;;;5.50;99.90;;;;;;5150208;27;20091;-80
2024/01/31 09:20:53;;;;;;;4.38;3.90;;;5.50;99.90;;;;;;5149481;27;20122;-81
2024/01/31 09:23:19;;;;;;;4.88;3.58;;;5.60;99.90;;;;;;5149422;27;20114;-81
2024/01/31 09:25:46;;;;;;;6.20;4.13;;;5.60;99.90;;;;;;5127670;27;20046;-81
2024/01/31 09:28:11;;;;;;;4.95;3.65;;;5.60;99.90;;;;;;5130741;27;20049;-81
2024/01/31 09:30:37;;;;;;;5.97;4.38;;;5.70;99.90;;;;;;5110336;28;20050;-81
2024/01/31 09:33:02;;;;;;;5.72;4.18;;;5.70;99.90;;;;;;5110794;28;20107;-81
2024/01/31 09:35:28;;;;;;;5.22;3.78;;;5.80;99.90;;;;;;5128555;28;20073;-81
2024/01/31 09:37:54;;;;;;;8.10;4.28;;;5.80;99.90;;;;;;5129104;28;20035;-81
2024/01/31 09:40:22;;;;;;;5.57;3.78;;;5.80;99.90;;;;;;5128626;28;20424;-81
2024/01/31 09:42:50;;;;;;;4.60;3.60;;;5.90;99.90;;;;;;5142339;27;20046;-82
2024/01/31 09:45:17;;;;;;;5.10;3.47;;;6.00;99.90;;;;;;5145670;27;20053;-82
2024/01/31 09:47:45;;;;;;;5.93;3.83;;;5.90;99.90;;;;;;5139673;27;20042;-80
2024/01/31 09:50:11;;;;;;;5.40;3.92;;;6.20;99.90;;;;;;5140114;27;20500;-80
2024/01/31 09:52:39;;;;;;;6.88;3.67;;;5.60;99.90;;;;;;5139621;27;20549;-81
2024/01/31 09:55:09;;;;;;;6.78;3.47;;;5.80;99.90;;;;;;5111172;28;20054;-81
2024/01/31 09:57:35;;;;;;;5.47;4.35;;;6.00;99.90;;;;;;5110609;28;20043;-81
2024/01/31 10:00:05;;;;;;;5.65;4.05;;;5.90;99.90;;;;;;5140898;27;20082;-81
2024/01/31 10:02:31;;;;;;;6.03;4.00;;;5.90;99.90;;;;;;5121587;27;20122;-82
2024/01/31 10:04:57;;;;;;;4.70;3.70;;;6.00;99.90;;;;;;5113341;27;20051;-82
2024/01/31 10:07:24;;;;;;;9.15;4.40;;;6.10;99.90;;;;;;5145404;27;20099;-82
2024/01/31 10:09:50;;;;;;;7.03;4.47;;;;;;;;;;5128318;27;20044;-81
2024/01/31 10:12:18;;;;;;;5.70;4.47;;;;;;;;;;5149141;27;20045;-82
2024/01/31 10:14:44;;;;;;;7.40;4.25;;;;;;;;;;5140989;27;20153;-81
2024/01/31 10:17:10;;;;;;;7.55;4.28;;;;;;;;;;5130107;27;20107;-81
2024/01/31 10:19:36;;;;;;;8.60;4.28;;;;;;;;;;5148858;27;20471;-81
2024/01/31 10:22:02;;;;;;;5.43;4.53;;;;;;;;;;5124225;27;20145;-81
2024/01/31 10:24:28;;;;;;;6.45;4.20;;;;;;;;;;5127676;28;20059;-81
2024/01/31 10:26:55;;;;;;;5.40;4.55;;;;;;;;;;5145817;27;20523;-81
2024/01/31 10:29:21;;;;;;;7.75;4.80;;;;;;;;;;5152488;27;20469;-81
2024/01/31 10:31:49;;;;;;;8.18;4.72;;;;;;;;;;5152710;27;20045;-81
2024/01/31 10:34:15;;;;;;;5.07;4.57;;;;;;;;;;5134077;27;20039;-80
2024/01/31 10:36:42;;;;;;;5.93;4.80;;;;;;;;;;5150787;27;20576;-81
2024/01/31 10:39:11;;;;;;;5.90;5.30;;;;;;;;;;5135438;27;20456;-81
2024/01/31 10:41:40;;;;;;;5.90;5.22;;;;;;;;;;5132598;27;20038;-81
2024/01/31 10:44:08;;;;;;;7.18;6.47;;;;;;;;;;5134012;27;20043;-82
2024/01/31 10:46:35;;;;;;;8.68;5.70;;;;;;;;;;5133808;27;20053;-82
2024/01/31 10:49:01;;;;;;;6.80;6.10;;;;;;;;;;5152099;27;20850;-81
2024/01/31 10:51:27;;;;;;;6.10;5.50;;;;;;;;;;5151402;27;20045;-81
2024/01/31 10:53:55;;;;;;;6.43;5.78;;;;;;;;;;5136087;27;20119;-80
2024/01/31 10:56:24;;;;;;;6.05;5.30;;;;;;;;;;5125970;27;20054;-80
2024/01/31 10:58:50;;;;;;;6.43;5.72;;;;;;;;;;5152040;27;20043;-81
2024/01/31 11:01:16;;;;;;;6.72;5.32;;;;;;;;;;5152023;27;20038;-80
2024/01/31 11:03:46;;;;;;;5.85;4.78;;;;;;;;;;5151934;27;20043;-81
2024/01/31 11:06:12;;;;;;;13.35;8.52;;;;;;;;;;5151945;27;20043;-82
2024/01/31 11:08:41;;;;;;;8.73;5.95;;;;;;;;;;5122616;27;20047;-82
2024/01/31 11:11:13;;;;;;;6.72;5.82;;;;;;;;;;5114959;27;20051;-80
2024/01/31 11:13:39;;;;;;;8.93;6.45;;;;;;;;;;5132099;27;20057;-79
2024/01/31 11:16:05;;;;;;;7.93;6.32;;;;;;;;;;5115992;27;20039;-76
2024/01/31 11:18:32;;;;;;;9.63;6.60;;;;;;;;;;5140416;27;20046;-78
2024/01/31 11:20:58;;;;;;;8.35;6.90;;;;;;;;;;5109212;27;20112;-79
2024/01/31 11:23:25;;;;;;;11.02;8.77;;;;;;;;;;5147469;27;20060;-79
2024/01/31 11:25:52;;;;;;;13.93;10.13;;;;;;;;;;5151205;27;20058;-79
2024/01/31 11:28:18;;;;;;;12.73;8.45;;;;;;;;;;5130470;27;20174;-79
2024/01/31 11:30:50;;;;;;;11.57;8.75;;;;;;;;;;5114781;27;20051;-80
2024/01/31 11:33:16;;;;;;;9.70;7.20;;;;;;;;;;5131107;27;20535;-79
2024/01/31 11:35:42;;;;;;;10.00;8.10;;;;;;;;;;5132773;27;20450;-80
2024/01/31 11:38:08;;;;;;;8.77;7.30;;;;;;;;;;5114547;27;20198;-79
2024/01/31 11:40:34;;;;;;;12.18;8.73;;;;;;;;;;5150512;27;20106;-80
2024/01/31 11:43:04;;;;;;;10.50;7.82;;;;;;;;;;5127045;27;20098;-79
2024/01/31 11:45:30;;;;;;;10.18;8.73;;;;;;;;;;5135491;27;20473;-79
2024/01/31 11:47:57;;;;;;;10.57;8.52;;;;;;;;;;5128250;27;20056;-79
2024/01/31 11:50:25;;;;;;;8.63;7.72;;;;;;;;;;5150327;27;20038;-79
2024/01/31 11:52:51;;;;;;;8.45;7.38;;;;;;;;;;5131811;27;20071;-79
2024/01/31 11:55:24;;;;;;;8.70;7.53;;;;;;;;;;5111386;27;20039;-79
2024/01/31 11:57:50;;;;;;;7.28;6.55;;;;;;;;;;5112150;27;20039;-79
2024/01/31 12:00:16;;;;;;;10.45;7.75;;;;;;;;;;5095740;27;20099;-79
2024/01/31 12:02:43;;;;;;;9.35;6.88;;;;;;;;;;5150398;27;20081;-79
2024/01/31 12:05:09;;;;;;;10.38;8.13;;;;;;;;;;5120076;27;20038;-79
2024/01/31 12:07:35;;;;;;;13.43;6.72;;;;;;;;;;5115702;27;20108;-79
2024/01/31 12:10:03;;;;;;;10.23;6.40;;;;;;;;;;5131712;27;20039;-79
2024/01/31 12:12:30;;;;;;;7.05;5.72;;;;;;;;;;5120254;27;20085;-80
2024/01/31 12:14:56;;;;;;;9.02;6.85;;;;;;;;;;5135160;27;20088;-79
2024/01/31 12:17:22;;;;;;;6.97;6.28;;;;;;;;;;5149282;27;20039;-81
2024/01/31 12:19:49;;;;;;;7.40;5.63;;;;;;;;;;5132218;27;20050;-80
2024/01/31 12:22:17;;;;;;;6.60;5.70;;;;;;;;;;5150571;27;20543;-80
2024/01/31 12:24:43;;;;;;;7.50;5.75;;;;;;;;;;5149730;27;20496;-80
2024/01/31 12:27:09;;;;;;;6.85;5.82;;;;;;;;;;5150473;27;20135;-80
2024/01/31 12:29:36;;;;;;;8.23;6.20;;;;;;;;;;5140055;27;20500;-80
2024/01/31 12:32:02;;;;;;;8.05;6.47;;;;;;;;;;5114083;27;20496;-80
2024/01/31 12:34:28;;;;;;;8.73;7.00;;;;;;;;;;5143183;27;20043;-80
2024/01/31 12:36:54;;;;;;;8.02;6.75;;;;;;;;;;5150245;27;20157;-80
2024/01/31 12:39:20;;;;;;;8.43;7.57;;;;;;;;;;5145739;27;20470;-80
2024/01/31 12:41:47;;;;;;;10.65;7.85;;;;;;;;;;5150085;27;20511;-79
2024/01/31 12:44:13;;;;;;;8.60;7.60;;;;;;;;;;5131736;27;20407;-80
2024/01/31 12:46:40;;;;;;;10.82;8.60;;;;;;;;;;5150136;27;20046;-80
2024/01/31 12:49:06;;;;;;;10.95;8.98;;;;;;;;;;5149886;27;20057;-79
2024/01/31 12:51:32;;;;;;;9.68;8.68;;;;;;;;;;5149274;27;20349;-80
2024/01/31 12:53:58;;;;;;;10.13;8.32;;;;;;;;;;5140647;27;20150;-79
2024/01/31 12:56:24;;;;;;;10.35;8.98;;;;;;;;;;5146416;27;20488;-80
2024/01/31 12:58:50;;;;;;;9.70;8.52;;;;;;;;;;5114401;27;20110;-80
2024/01/31 13:01:17;;;;;;;12.57;9.55;;;;;;;;;;5150092;27;20065;-80
2024/01/31 13:03:43;;;;;;;10.45;9.40;;;;;;;;;;5129877;27;20046;-80
2024/01/31 13:06:09;;;;;;;11.20;9.25;;;;;;;;;;5149669;27;21048;-80
2024/01/31 13:08:35;;;;;;;10.57;9.18;;;;;;;;;;5149515;27;20479;-81
2024/01/31 13:11:02;;;;;;;11.73;8.48;;;;;;;;;;5132112;27;20449;-80